Time,TemperatureF,DewpointF,PressureIn,WindDirection,WindDirectionDegrees,WindSpeedMPH,WindSpeedGustMPH,Humidity,HourlyPrecipIn,Conditions,Clouds,dailyrainin,SolarRadiationWatts/m^2,SoftwareType,DateUTC
2013-12-16 00:00:00,37.8,9.8,30.16,WSW,257,12.0,13.0,31,0.00,,,0.00,0,Wunderground v.1.15,2013-12-16 07:00:00,
2013-12-16 00:05:00,38.0,9.3,30.16,West,277,12.0,13.0,30,0.00,,,0.00,0,Wunderground v.1.15,2013-12-16 07:05:00,
2013-12-16 00:15:00,38.2,9.4,30.17,WNW,291,10.0,11.0,30,0.00,,,0.00,0,Wunderground v.1.15,2013-12-16 07:15:00,
2013-12-16 00:20:00,37.9,9.9,30.17,WNW,288,10.0,11.0,31,0.00,,,0.00,0,Wunderground v.1.15,2013-12-16 07:20:00,
2013-12-16 00:30:00,36.6,10.2,30.15,West,273,10.0,10.0,33,0.00,,,0.00,0,Wunderground v.1.15,2013-12-16 07:30:00,
2013-12-16 00:35:00,36.3,9.9,30.16,WNW,282,9.0,11.0,33,0.00,,,0.00,0,Wunderground v.1.15,2013-12-16 07:35:00,
2013-12-16 00:40:00,36.2,9.8,30.16,WNW,292,9.0,12.0,33,0.00,,,0.00,0,Wunderground v.1.15,2013-12-16 07:40:00,
2013-12-16 00:46:00,35.8,10.0,30.16,West,271,7.0,13.0,35,0.00,,,0.00,0,weatherlink.com 1.10,2013-12-16 07:46:00,
2013-12-16 00:55:00,34.3,11.3,30.15,West,263,7.0,11.0,38,0.00,,,0.00,0,Wunderground v.1.15,2013-12-16 07:55:00,
2013-12-16 01:02:00,33.5,10.0,30.15,West,263,8.0,10.0,38,0.00,,,0.00,0,weatherlink.com 1.10,2013-12-16 08:02:00,
2013-12-16 01:10:00,32.7,10.4,30.15,West,265,8.0,11.0,39,0.00,,,0.00,0,Wunderground v.1.15,2013-12-16 08:10:00,
2013-12-16 01:15:00,32.4,11.3,30.15,West,265,7.0,11.0,41,0.00,,,0.00,0,Wunderground v.1.15,2013-12-16 08:15:00,
2013-12-16 01:21:00,33.4,11.1,30.16,West,265,6.0,6.0,39,0.00,,,0.00,0,Wunderground v.1.15,2013-12-16 08:21:00,
2013-12-16 01:30:00,33.7,11.3,30.16,West,265,1.0,1.0,39,0.00,,,0.00,0,Wunderground v.1.15,2013-12-16 08:30:00,
2013-12-16 01:40:00,31.0,12.1,30.16,West,265,0.0,11.0,45,0.00,,,0.00,0,Wunderground v.1.15,2013-12-16 08:40:00,
2013-12-16 01:45:00,30.6,11.7,30.16,West,263,0.0,11.0,45,0.00,,,0.00,0,Wunderground v.1.15,2013-12-16 08:45:00,
2013-12-16 01:55:00,28.4,11.2,30.16,West,263,0.0,11.0,48,0.00,,,0.00,0,Wunderground v.1.15,2013-12-16 08:55:00,
2013-12-16 02:03:00,26.9,11.0,30.16,West,263,0.0,0.0,51,0.00,,,0.00,0,weatherlink.com 1.10,2013-12-16 09:03:00,
2013-12-16 02:10:00,26.0,11.6,30.16,West,263,0.0,11.0,54,0.00,,,0.00,0,Wunderground v.1.15,2013-12-16 09:10:00,
2013-12-16 02:15:00,25.3,11.4,30.17,West,263,0.0,11.0,55,0.00,,,0.00,0,Wunderground v.1.15,2013-12-16 09:15:00,
2013-12-16 02:25:00,25.1,11.6,30.16,West,262,1.0,11.0,56,0.00,,,0.00,0,Wunderground v.1.15,2013-12-16 09:25:00,
2013-12-16 02:30:00,24.2,12.7,30.16,West,260,5.0,11.0,61,0.00,,,0.00,0,Wunderground v.1.15,2013-12-16 09:30:00,
2013-12-16 02:40:00,29.4,13.5,30.16,West,261,5.0,11.0,51,0.00,,,0.00,0,Wunderground v.1.15,2013-12-16 09:40:00,
2013-12-16 02:46:00,32.1,13.6,30.15,West,261,5.0,11.0,46,0.00,,,0.00,0,Wunderground v.1.15,2013-12-16 09:46:00,
2013-12-16 02:56:00,32.4,13.9,30.15,West,271,7.0,11.0,46,0.00,,,0.00,0,Wunderground v.1.15,2013-12-16 09:56:00,
2013-12-16 03:02:00,33.8,13.0,30.14,West,271,7.0,10.0,42,0.00,,,0.00,0,weatherlink.com 1.10,2013-12-16 10:02:00,
2013-12-16 03:10:00,33.8,13.6,30.15,West,271,5.0,11.0,43,0.00,,,0.00,0,Wunderground v.1.15,2013-12-16 10:10:00,
2013-12-16 03:15:00,33.4,13.3,30.15,West,271,5.0,11.0,43,0.00,,,0.00,0,Wunderground v.1.15,2013-12-16 10:15:00,
2013-12-16 03:21:00,33.2,13.1,30.15,West,275,6.0,11.0,43,0.00,,,0.00,0,Wunderground v.1.15,2013-12-16 10:21:00,
2013-12-16 03:30:00,33.7,13.0,30.15,West,280,6.0,11.0,42,0.00,,,0.00,0,Wunderground v.1.15,2013-12-16 10:30:00,
2013-12-16 03:35:00,34.7,12.2,30.15,West,274,8.0,11.0,39,0.00,,,0.00,0,Wunderground v.1.15,2013-12-16 10:35:00,
2013-12-16 03:40:00,33.4,13.3,30.14,West,264,9.0,9.0,43,0.00,,,0.00,0,Wunderground v.1.15,2013-12-16 10:40:00,
2013-12-16 03:48:00,32.5,13.0,30.14,West,269,7.0,10.0,44,0.00,,,0.00,0,weatherlink.com 1.10,2013-12-16 10:48:00,
2013-12-16 03:55:00,33.1,12.5,30.14,West,276,7.0,11.0,42,0.00,,,0.00,0,Wunderground v.1.15,2013-12-16 10:55:00,
2013-12-16 04:00:00,32.7,12.6,30.14,West,276,6.0,11.0,43,0.00,,,0.00,0,Wunderground v.1.15,2013-12-16 11:00:00,
2013-12-16 04:05:00,32.5,12.5,30.14,West,276,7.0,11.0,43,0.00,,,0.00,0,Wunderground v.1.15,2013-12-16 11:05:00,
2013-12-16 04:11:00,32.8,12.2,30.14,West,274,8.0,11.0,42,0.00,,,0.00,0,Wunderground v.1.15,2013-12-16 11:11:00,
2013-12-16 04:18:00,32.8,12.0,30.14,West,274,4.0,10.0,43,0.00,,,0.00,0,weatherlink.com 1.10,2013-12-16 11:18:00,
2013-12-16 04:25:00,33.8,12.0,30.14,West,274,4.0,11.0,40,0.00,,,0.00,0,Wunderground v.1.15,2013-12-16 11:25:00,
2013-12-16 04:30:00,33.2,12.6,30.14,West,274,2.0,2.0,42,0.00,,,0.00,0,Wunderground v.1.15,2013-12-16 11:30:00,
2013-12-16 04:35:00,33.8,12.0,30.14,West,274,0.0,11.0,40,0.00,,,0.00,0,Wunderground v.1.15,2013-12-16 11:35:00,
2013-12-16 04:40:00,33.4,12.7,30.14,West,273,2.0,11.0,42,0.00,,,0.00,0,Wunderground v.1.15,2013-12-16 11:40:00,
2013-12-16 04:48:00,31.5,13.0,30.14,WNW,300,0.0,8.0,46,0.00,,,0.00,0,weatherlink.com 1.10,2013-12-16 11:48:00,
2013-12-16 04:55:00,31.9,12.9,30.14,WNW,300,2.0,4.0,45,0.00,,,0.00,0,Wunderground v.1.15,2013-12-16 11:55:00,
2013-12-16 05:03:00,31.8,13.0,30.14,SW,217,2.0,8.0,45,0.00,,,0.00,0,weatherlink.com 1.10,2013-12-16 12:03:00,
2013-12-16 05:11:00,30.0,12.2,30.14,SW,217,1.0,1.0,47,0.00,,,0.00,0,Wunderground v.1.15,2013-12-16 12:11:00,
2013-12-16 05:18:00,28.5,12.0,30.14,SW,231,0.0,1.0,50,0.00,,,0.00,0,weatherlink.com 1.10,2013-12-16 12:18:00,
2013-12-16 05:25:00,29.3,12.0,30.14,WSW,253,1.0,11.0,48,0.00,,,0.00,0,Wunderground v.1.15,2013-12-16 12:25:00,
2013-12-16 05:34:00,29.5,12.0,30.14,WSW,246,2.0,8.0,48,0.00,,,0.00,0,weatherlink.com 1.10,2013-12-16 12:34:00,
2013-12-16 05:40:00,28.4,10.2,30.15,WSW,246,2.0,2.0,46,0.00,,,0.00,0,Wunderground v.1.15,2013-12-16 12:40:00,
2013-12-16 05:49:00,24.8,10.0,30.15,WSW,245,0.0,0.0,53,0.00,,,0.00,0,weatherlink.com 1.10,2013-12-16 12:49:00,
2013-12-16 05:55:00,23.6,11.4,30.15,WSW,245,0.0,11.0,59,0.00,,,0.00,0,Wunderground v.1.15,2013-12-16 12:55:00,
2013-12-16 06:00:00,23.3,10.7,30.15,WSW,246,0.0,11.0,58,0.00,,,0.00,0,Wunderground v.1.15,2013-12-16 13:00:00,
2013-12-16 06:05:00,22.1,10.7,30.16,WSW,246,0.0,11.0,61,0.00,,,0.00,0,Wunderground v.1.15,2013-12-16 13:05:00,
2013-12-16 06:15:00,19.5,10.3,30.16,WSW,246,0.0,11.0,67,0.00,,,0.00,0,Wunderground v.1.15,2013-12-16 13:15:00,
2013-12-16 06:25:00,19.2,10.4,30.16,WSW,243,0.0,11.0,68,0.00,,,0.00,0,Wunderground v.1.15,2013-12-16 13:25:00,
2013-12-16 06:30:00,19.4,10.6,30.16,WSW,240,0.0,11.0,68,0.00,,,0.00,0,Wunderground v.1.15,2013-12-16 13:30:00,
2013-12-16 06:40:00,19.7,10.8,30.16,WSW,240,0.0,11.0,68,0.00,,,0.00,0,Wunderground v.1.15,2013-12-16 13:40:00,
2013-12-16 06:45:00,20.2,11.0,30.16,WSW,240,0.0,11.0,67,0.00,,,0.00,0,Wunderground v.1.15,2013-12-16 13:45:00,
2013-12-16 06:55:00,18.1,9.3,30.17,WSW,240,0.0,11.0,68,0.00,,,0.00,0,Wunderground v.1.15,2013-12-16 13:55:00,
2013-12-16 07:05:00,18.6,11.0,30.17,SW,223,0.0,0.0,71,0.00,,,0.00,0,weatherlink.com 1.10,2013-12-16 14:05:00,
2013-12-16 07:10:00,20.3,11.4,30.17,SW,214,0.0,11.0,68,0.00,,,0.00,5,Wunderground v.1.15,2013-12-16 14:10:00,
2013-12-16 07:15:00,21.9,11.9,30.17,SW,214,0.0,11.0,65,0.00,,,0.00,7,Wunderground v.1.15,2013-12-16 14:15:00,
2013-12-16 07:25:00,19.9,10.0,30.17,SW,214,0.0,11.0,65,0.00,,,0.00,11,Wunderground v.1.15,2013-12-16 14:25:00,
2013-12-16 07:30:00,20.0,10.8,30.17,SW,214,0.0,11.0,67,0.00,,,0.00,14,Wunderground v.1.15,2013-12-16 14:30:00,
2013-12-16 07:40:00,22.2,12.6,30.17,SW,215,0.0,11.0,66,0.00,,,0.00,19,Wunderground v.1.15,2013-12-16 14:40:00,
2013-12-16 07:50:00,22.7,13.0,30.17,South,185,0.0,0.0,65,0.00,,,0.00,33,weatherlink.com 1.10,2013-12-16 14:50:00,
2013-12-16 07:55:00,22.2,12.2,30.17,SSE,164,0.0,11.0,65,0.00,,,0.00,46,Wunderground v.1.15,2013-12-16 14:55:00,
2013-12-16 08:00:00,22.9,12.9,30.17,SSE,164,0.0,11.0,65,0.00,,,0.00,62,Wunderground v.1.15,2013-12-16 15:00:00,
2013-12-16 08:10:00,25.0,15.2,30.18,SSE,164,0.0,11.0,66,0.00,,,0.00,83,Wunderground v.1.15,2013-12-16 15:10:00,
2013-12-16 08:15:00,27.3,16.4,30.18,SSE,164,0.0,11.0,63,0.00,,,0.00,100,Wunderground v.1.15,2013-12-16 15:15:00,
2013-12-16 08:25:00,30.3,16.9,30.18,SSE,164,0.0,11.0,57,0.00,,,0.00,130,Wunderground v.1.15,2013-12-16 15:25:00,
2013-12-16 08:30:00,31.2,17.3,30.19,SSE,164,0.0,11.0,56,0.00,,,0.00,142,Wunderground v.1.15,2013-12-16 15:30:00,
2013-12-16 08:35:00,32.8,18.4,30.19,SSE,164,0.0,11.0,55,0.00,,,0.00,156,Wunderground v.1.15,2013-12-16 15:35:00,
2013-12-16 08:40:00,34.0,18.6,30.19,SSE,164,0.0,11.0,53,0.00,,,0.00,174,Wunderground v.1.15,2013-12-16 15:40:00,
2013-12-16 08:50:00,36.9,18.5,30.19,SSE,164,0.0,11.0,47,0.00,,,0.00,206,Wunderground v.1.15,2013-12-16 15:50:00,
2013-12-16 09:00:00,39.5,18.8,30.19,SSE,164,0.0,11.0,43,0.00,,,0.00,237,Wunderground v.1.15,2013-12-16 16:00:00,
2013-12-16 09:06:00,40.9,19.5,30.19,SSE,164,0.0,11.0,42,0.00,,,0.00,250,Wunderground v.1.15,2013-12-16 16:06:00,
2013-12-16 09:15:00,43.2,18.6,30.19,SSE,164,0.0,11.0,37,0.00,,,0.00,272,Wunderground v.1.15,2013-12-16 16:15:00,
2013-12-16 09:20:00,43.5,18.3,30.19,SSE,164,0.0,11.0,36,0.00,,,0.00,283,Wunderground v.1.15,2013-12-16 16:20:00,
2013-12-16 09:25:00,44.2,18.2,30.19,SSE,164,0.0,11.0,35,0.00,,,0.00,295,Wunderground v.1.15,2013-12-16 16:25:00,
2013-12-16 09:30:00,45.1,17.0,30.19,SSE,164,0.0,11.0,32,0.00,,,0.00,306,Wunderground v.1.15,2013-12-16 16:30:00,
2013-12-16 09:35:00,46.1,14.0,30.19,SSE,164,0.0,0.0,27,0.00,,,0.00,316,weatherlink.com 1.10,2013-12-16 16:35:00,
2013-12-16 09:45:00,48.0,14.7,30.19,SSE,164,0.0,11.0,26,0.00,,,0.00,338,Wunderground v.1.15,2013-12-16 16:45:00,
2013-12-16 09:51:00,48.6,14.0,30.19,SSE,164,0.0,0.0,25,0.00,,,0.00,345,weatherlink.com 1.10,2013-12-16 16:51:00,
2013-12-16 10:00:00,49.1,13.8,30.19,SSE,164,0.0,11.0,24,0.00,,,0.00,364,Wunderground v.1.15,2013-12-16 17:00:00,
2013-12-16 10:06:00,49.5,13.2,30.19,SSE,164,0.0,11.0,23,0.00,,,0.00,373,Wunderground v.1.15,2013-12-16 17:06:00,
2013-12-16 10:15:00,51.0,11.3,30.19,SSE,164,0.0,11.0,20,0.00,,,0.00,390,Wunderground v.1.15,2013-12-16 17:15:00,
2013-12-16 10:22:00,50.8,11.0,30.20,SSE,164,0.0,0.0,20,0.00,,,0.00,397,weatherlink.com 1.10,2013-12-16 17:22:00,
2013-12-16 10:30:00,50.5,9.7,30.19,WNW,303,2.0,11.0,19,0.00,,,0.00,410,Wunderground v.1.15,2013-12-16 17:30:00,
2013-12-16 10:37:00,50.5,8.0,30.19,WNW,303,0.0,9.0,18,0.00,,,0.00,418,weatherlink.com 1.10,2013-12-16 17:37:00,
2013-12-16 10:45:00,50.7,9.9,30.18,NW,315,0.0,11.0,19,0.00,,,0.00,429,Wunderground v.1.15,2013-12-16 17:45:00,
2013-12-16 10:50:00,51.0,10.1,30.18,NW,315,0.0,11.0,19,0.00,,,0.00,434,Wunderground v.1.15,2013-12-16 17:50:00,
2013-12-16 11:00:00,51.0,7.6,30.17,WNW,303,1.0,1.0,17,0.00,,,0.00,443,Wunderground v.1.15,2013-12-16 18:00:00,
2013-12-16 11:05:00,51.6,8.1,30.17,NW,325,0.0,11.0,17,0.00,,,0.00,448,Wunderground v.1.15,2013-12-16 18:05:00,
2013-12-16 11:15:00,52.0,7.1,30.16,NW,325,0.0,11.0,16,0.00,,,0.00,457,Wunderground v.1.15,2013-12-16 18:15:00,
2013-12-16 11:20:00,52.0,7.1,30.15,NW,325,0.0,11.0,16,0.00,,,0.00,461,Wunderground v.1.15,2013-12-16 18:20:00,
2013-12-16 11:30:00,52.5,7.5,30.14,NW,325,0.0,11.0,16,0.00,,,0.00,466,Wunderground v.1.15,2013-12-16 18:30:00,
2013-12-16 11:36:00,52.3,7.4,30.14,NW,325,0.0,11.0,16,0.00,,,0.00,468,Wunderground v.1.15,2013-12-16 18:36:00,
2013-12-16 11:45:00,52.5,6.1,30.13,WNW,293,1.0,11.0,15,0.00,,,0.00,471,Wunderground v.1.15,2013-12-16 18:45:00,
2013-12-16 11:52:00,52.9,6.0,30.13,NW,315,3.0,12.0,15,0.00,,,0.00,471,weatherlink.com 1.10,2013-12-16 18:52:00,
2013-12-16 12:00:00,53.5,8.3,30.13,WNW,288,1.0,11.0,16,0.00,,,0.00,473,Wunderground v.1.15,2013-12-16 19:00:00,
2013-12-16 12:07:00,53.3,7.0,30.13,WNW,302,11.0,11.0,15,0.00,,,0.00,471,weatherlink.com 1.10,2013-12-16 19:07:00,
2013-12-16 12:15:00,53.2,6.7,30.12,NW,305,8.0,10.0,15,0.00,,,0.00,471,Wunderground v.1.15,2013-12-16 19:15:00,
2013-12-16 12:20:00,53.2,6.7,30.12,WNW,294,6.0,6.0,15,0.00,,,0.00,468,Wunderground v.1.15,2013-12-16 19:20:00,
2013-12-16 12:25:00,53.2,8.1,30.12,WNW,291,5.0,8.0,16,0.00,,,0.00,466,Wunderground v.1.15,2013-12-16 19:25:00,
2013-12-16 12:31:00,53.2,6.7,30.11,WNW,300,5.0,5.0,15,0.00,,,0.00,466,Wunderground v.1.15,2013-12-16 19:31:00,
2013-12-16 12:37:00,53.3,8.0,30.11,WNW,300,0.0,9.0,16,0.00,,,0.00,462,weatherlink.com 1.10,2013-12-16 19:37:00,
2013-12-16 12:45:00,53.6,8.4,30.11,NW,319,1.0,11.0,16,0.00,,,0.00,457,Wunderground v.1.15,2013-12-16 19:45:00,
2013-12-16 12:50:00,53.9,8.7,30.11,NNW,331,0.0,11.0,16,0.00,,,0.00,452,Wunderground v.1.15,2013-12-16 19:50:00,
2013-12-16 13:00:00,53.8,7.1,30.10,North,355,0.0,11.0,15,0.00,,,0.00,443,Wunderground v.1.15,2013-12-16 20:00:00,
2013-12-16 13:07:00,53.5,9.0,30.11,ENE,60,2.0,7.0,17,0.00,,,0.00,436,weatherlink.com 1.10,2013-12-16 20:07:00,
2013-12-16 13:15:00,53.2,8.1,30.10,ENE,60,2.0,11.0,16,0.00,,,0.00,427,Wunderground v.1.15,2013-12-16 20:15:00,
2013-12-16 13:20:00,53.3,6.7,30.10,ENE,60,0.0,11.0,15,0.00,,,0.00,422,Wunderground v.1.15,2013-12-16 20:20:00,
2013-12-16 13:25:00,53.6,8.4,30.10,NNE,20,0.0,11.0,16,0.00,,,0.00,415,Wunderground v.1.15,2013-12-16 20:25:00,
2013-12-16 13:35:00,54.1,8.8,30.10,NNE,12,2.0,11.0,16,0.00,,,0.00,401,Wunderground v.1.15,2013-12-16 20:35:00,
2013-12-16 13:40:00,53.9,7.2,30.11,NNE,22,3.0,3.0,15,0.00,,,0.00,392,Wunderground v.1.15,2013-12-16 20:40:00,
2013-12-16 13:50:00,53.9,8.7,30.11,NNE,15,4.0,4.0,16,0.00,,,0.00,378,Wunderground v.1.15,2013-12-16 20:50:00,
2013-12-16 13:55:00,54.1,7.4,30.11,NNW,345,5.0,5.0,15,0.00,,,0.00,369,Wunderground v.1.15,2013-12-16 20:55:00,
2013-12-16 14:05:00,54.2,8.9,30.12,North,360,2.0,11.0,16,0.00,,,0.00,352,Wunderground v.1.15,2013-12-16 21:05:00,
2013-12-16 14:10:00,53.9,8.7,30.12,NNE,29,3.0,11.0,16,0.00,,,0.00,343,Wunderground v.1.15,2013-12-16 21:10:00,
2013-12-16 14:15:00,53.8,8.6,30.12,NE,35,4.0,11.0,16,0.00,,,0.00,334,Wunderground v.1.15,2013-12-16 21:15:00,
2013-12-16 14:20:00,53.6,8.4,30.12,NE,37,4.0,11.0,16,0.00,,,0.00,323,Wunderground v.1.15,2013-12-16 21:20:00,
2013-12-16 14:30:00,53.1,8.0,30.12,ENE,65,1.0,1.0,16,0.00,,,0.00,302,Wunderground v.1.15,2013-12-16 21:30:00,
2013-12-16 14:35:00,52.9,6.4,30.12,ENE,70,2.0,2.0,15,0.00,,,0.00,290,Wunderground v.1.15,2013-12-16 21:35:00,
2013-12-16 14:45:00,52.3,8.7,30.12,NE,54,4.0,11.0,17,0.00,,,0.00,265,Wunderground v.1.15,2013-12-16 21:45:00,
2013-12-16 14:53:00,52.8,8.0,30.12,NNE,24,0.0,4.0,16,0.00,,,0.00,241,weatherlink.com 1.10,2013-12-16 21:53:00,
2013-12-16 15:00:00,52.9,9.2,30.13,NNE,19,0.0,11.0,17,0.00,,,0.00,221,Wunderground v.1.15,2013-12-16 22:00:00,
2013-12-16 15:05:00,52.8,7.8,30.13,NNE,19,0.0,11.0,16,0.00,,,0.00,206,Wunderground v.1.15,2013-12-16 22:05:00,
2013-12-16 15:10:00,52.5,7.5,30.12,NE,44,1.0,11.0,16,0.00,,,0.00,190,Wunderground v.1.15,2013-12-16 22:10:00,
2013-12-16 15:20:00,51.4,6.6,30.13,NE,51,6.0,6.0,16,0.00,,,0.00,156,Wunderground v.1.15,2013-12-16 22:20:00,
2013-12-16 15:25:00,51.1,9.0,30.13,NE,51,3.0,11.0,18,0.00,,,0.00,141,Wunderground v.1.15,2013-12-16 22:25:00,
2013-12-16 15:35:00,49.8,10.3,30.13,NE,51,0.0,11.0,20,0.00,,,0.00,113,Wunderground v.1.15,2013-12-16 22:35:00,
2013-12-16 15:45:00,49.4,8.8,30.13,NE,42,5.0,11.0,19,0.00,,,0.00,83,Wunderground v.1.15,2013-12-16 22:45:00,
2013-12-16 15:53:00,48.9,8.0,30.13,NNE,13,11.0,12.0,19,0.00,,,0.00,63,weatherlink.com 1.10,2013-12-16 22:53:00,
2013-12-16 16:00:00,48.5,8.0,30.14,North,360,11.0,12.0,19,0.00,,,0.00,46,Wunderground v.1.15,2013-12-16 23:00:00,
2013-12-16 16:05:00,48.2,7.8,30.14,North,355,11.0,12.0,19,0.00,,,0.00,33,Wunderground v.1.15,2013-12-16 23:05:00,
2013-12-16 16:15:00,47.3,5.9,30.14,NNW,329,9.0,11.0,18,0.00,,,0.00,16,Wunderground v.1.15,2013-12-16 23:15:00,
2013-12-16 16:24:00,46.8,5.0,30.14,NNW,333,8.0,13.0,18,0.00,,,0.00,11,weatherlink.com 1.10,2013-12-16 23:24:00,
2013-12-16 16:30:00,45.7,6.8,30.15,NNW,344,8.0,8.0,20,0.00,,,0.00,7,Wunderground v.1.15,2013-12-16 23:30:00,
2013-12-16 16:39:00,42.9,7.0,30.15,NNW,346,5.0,8.0,23,0.00,,,0.00,0,weatherlink.com 1.10,2013-12-16 23:39:00,
2013-12-16 16:45:00,42.1,8.7,30.15,NNW,346,3.0,11.0,25,0.00,,,0.00,0,Wunderground v.1.15,2013-12-16 23:45:00,
2013-12-16 16:50:00,40.5,8.2,30.16,NNW,346,1.0,1.0,26,0.00,,,0.00,0,Wunderground v.1.15,2013-12-16 23:50:00,
2013-12-16 17:00:00,38.6,9.0,30.16,NW,320,0.0,11.0,29,0.00,,,0.00,0,Wunderground v.1.15,2013-12-17 00:00:00,
2013-12-16 17:09:00,36.6,8.0,30.16,WSW,248,0.0,5.0,31,0.00,,,0.00,0,weatherlink.com 1.10,2013-12-17 00:09:00,
2013-12-16 17:15:00,35.9,10.9,30.17,WSW,247,1.0,11.0,35,0.00,,,0.00,0,Wunderground v.1.15,2013-12-17 00:15:00,
2013-12-16 17:24:00,35.2,11.0,30.17,SSW,200,0.0,0.0,37,0.00,,,0.00,0,weatherlink.com 1.10,2013-12-17 00:24:00,
2013-12-16 17:30:00,33.8,13.1,30.18,SW,229,2.0,11.0,42,0.00,,,0.00,0,Wunderground v.1.15,2013-12-17 00:30:00,
2013-12-16 17:35:00,33.1,13.0,30.19,SW,223,5.0,11.0,43,0.00,,,0.00,0,Wunderground v.1.15,2013-12-17 00:35:00,
2013-12-16 17:40:00,32.8,11.1,30.19,SW,223,6.0,6.0,40,0.00,,,0.00,0,Wunderground v.1.15,2013-12-17 00:40:00,
2013-12-16 17:50:00,33.4,11.1,30.20,SW,223,1.0,1.0,39,0.00,,,0.00,0,Wunderground v.1.15,2013-12-17 00:50:00,
2013-12-16 18:00:00,32.5,11.4,30.20,SW,223,0.0,11.0,41,0.00,,,0.00,0,Wunderground v.1.15,2013-12-17 01:00:00,
2013-12-16 18:05:00,31.6,12.2,30.19,SW,223,0.0,11.0,44,0.00,,,0.00,0,Wunderground v.1.15,2013-12-17 01:05:00,
2013-12-16 18:10:00,30.1,11.8,30.19,SW,223,0.0,11.0,46,0.00,,,0.00,0,Wunderground v.1.15,2013-12-17 01:10:00,
2013-12-16 18:15:00,29.3,12.9,30.19,SW,223,0.0,11.0,50,0.00,,,0.00,0,Wunderground v.1.15,2013-12-17 01:15:00,
2013-12-16 18:24:00,27.3,13.0,30.19,SW,223,0.0,0.0,55,0.00,,,0.00,0,weatherlink.com 1.10,2013-12-17 01:24:00,
2013-12-16 18:30:00,27.0,13.4,30.19,SW,223,0.0,11.0,56,0.00,,,0.00,0,Wunderground v.1.15,2013-12-17 01:30:00,
2013-12-16 18:40:00,26.7,14.0,30.19,SW,223,3.0,8.0,58,0.00,,,0.00,0,weatherlink.com 1.10,2013-12-17 01:40:00,
2013-12-16 18:45:00,26.3,13.5,30.19,SW,223,3.0,11.0,58,0.00,,,0.00,0,Wunderground v.1.15,2013-12-17 01:45:00,
2013-12-16 18:50:00,25.4,13.8,30.20,SW,223,1.0,1.0,61,0.00,,,0.00,0,Wunderground v.1.15,2013-12-17 01:50:00,
2013-12-16 19:00:00,25.1,13.5,30.20,SW,223,0.0,11.0,61,0.00,,,0.00,0,Wunderground v.1.15,2013-12-17 02:00:00,
2013-12-16 19:05:00,25.1,13.2,30.20,SW,223,0.0,11.0,60,0.00,,,0.00,0,Wunderground v.1.15,2013-12-17 02:05:00,
2013-12-16 19:15:00,24.4,13.2,30.21,SW,223,0.0,11.0,62,0.00,,,0.00,0,Wunderground v.1.15,2013-12-17 02:15:00,
2013-12-16 19:24:00,23.8,13.0,30.20,SW,223,0.0,0.0,64,0.00,,,0.00,0,weatherlink.com 1.10,2013-12-17 02:24:00,
2013-12-16 19:30:00,23.8,13.0,30.20,SW,223,0.0,11.0,63,0.00,,,0.00,0,Wunderground v.1.15,2013-12-17 02:30:00,
2013-12-16 19:35:00,23.8,13.0,30.20,SW,223,2.0,11.0,63,0.00,,,0.00,0,Wunderground v.1.15,2013-12-17 02:35:00,
2013-12-16 19:40:00,23.9,13.1,30.21,SW,223,3.0,3.0,63,0.00,,,0.00,0,Wunderground v.1.15,2013-12-17 02:40:00,
2013-12-16 19:50:00,24.1,12.9,30.21,SW,223,0.0,11.0,62,0.00,,,0.00,0,Wunderground v.1.15,2013-12-17 02:50:00,
2013-12-16 19:55:00,24.5,13.0,30.21,SW,223,0.0,11.0,61,0.00,,,0.00,0,Wunderground v.1.15,2013-12-17 02:55:00,
2013-12-16 20:05:00,23.2,12.8,30.21,SW,223,0.0,11.0,64,0.00,,,0.00,0,Wunderground v.1.15,2013-12-17 03:05:00,
2013-12-16 20:15:00,22.1,12.8,30.22,SW,223,0.0,11.0,67,0.00,,,0.00,0,Wunderground v.1.15,2013-12-17 03:15:00,
2013-12-16 20:25:00,22.1,12.0,30.23,SW,223,0.0,0.0,66,0.00,,,0.00,0,weatherlink.com 1.10,2013-12-17 03:25:00,
2013-12-16 20:30:00,21.8,12.9,30.23,SW,223,0.0,11.0,68,0.00,,,0.00,0,Wunderground v.1.15,2013-12-17 03:30:00,
2013-12-16 20:40:00,22.4,13.0,30.23,SW,223,0.0,0.0,66,0.00,,,0.00,0,weatherlink.com 1.10,2013-12-17 03:40:00,
2013-12-16 20:45:00,22.7,12.7,30.23,SW,223,0.0,11.0,65,0.00,,,0.00,0,Wunderground v.1.15,2013-12-17 03:45:00,
2013-12-16 20:50:00,22.9,12.5,30.23,SW,223,0.0,11.0,64,0.00,,,0.00,0,Wunderground v.1.15,2013-12-17 03:50:00,
2013-12-16 20:55:00,22.5,12.1,30.23,SW,223,0.0,11.0,64,0.00,,,0.00,0,Wunderground v.1.15,2013-12-17 03:55:00,
2013-12-16 21:00:00,22.4,12.1,30.23,SW,223,0.0,11.0,64,0.00,,,0.00,0,Wunderground v.1.15,2013-12-17 04:00:00,
2013-12-16 21:10:00,21.8,11.8,30.23,SW,223,0.0,11.0,65,0.00,,,0.00,0,Wunderground v.1.15,2013-12-17 04:10:00,
2013-12-16 21:20:00,21.0,11.4,30.24,SW,223,0.0,11.0,66,0.00,,,0.00,0,Wunderground v.1.15,2013-12-17 04:20:00,
2013-12-16 21:25:00,21.0,11.8,30.24,SW,223,0.0,11.0,67,0.00,,,0.00,0,Wunderground v.1.15,2013-12-17 04:25:00,
2013-12-16 21:30:00,20.8,11.2,30.24,SW,223,0.0,11.0,66,0.00,,,0.00,0,Wunderground v.1.15,2013-12-17 04:30:00,
2013-12-16 21:40:00,21.1,12.0,30.23,SW,223,0.0,0.0,67,0.00,,,0.00,0,weatherlink.com 1.10,2013-12-17 04:40:00,
2013-12-16 21:45:00,20.5,11.3,30.24,SW,223,0.0,11.0,67,0.00,,,0.00,0,Wunderground v.1.15,2013-12-17 04:45:00,
2013-12-16 21:50:00,20.5,11.9,30.24,SW,223,0.0,11.0,69,0.00,,,0.00,0,Wunderground v.1.15,2013-12-17 04:50:00,
2013-12-16 21:55:00,21.8,11.8,30.24,SW,221,0.0,11.0,65,0.00,,,0.00,0,Wunderground v.1.15,2013-12-17 04:55:00,
2013-12-16 22:05:00,21.9,12.3,30.25,SW,222,0.0,11.0,66,0.00,,,0.00,0,Wunderground v.1.15,2013-12-17 05:05:00,
2013-12-16 22:10:00,24.2,12.3,30.24,SW,215,1.0,1.0,60,0.00,,,0.00,0,Wunderground v.1.15,2013-12-17 05:10:00,
2013-12-16 22:15:00,23.6,11.7,30.25,SW,215,1.0,11.0,60,0.00,,,0.00,0,Wunderground v.1.15,2013-12-17 05:15:00,
2013-12-16 22:25:00,23.0,11.5,30.25,SW,215,0.0,11.0,61,0.00,,,0.00,0,Wunderground v.1.15,2013-12-17 05:25:00,
2013-12-16 22:35:00,23.2,11.4,30.25,SW,215,0.0,11.0,60,0.00,,,0.00,0,Wunderground v.1.15,2013-12-17 05:35:00,
2013-12-16 22:40:00,24.2,11.1,30.25,SW,215,0.0,11.0,57,0.00,,,0.00,0,Wunderground v.1.15,2013-12-17 05:40:00,
2013-12-16 22:41:00,24.2,11.0,30.25,SW,215,0.0,0.0,58,0.00,,,0.00,0,weatherlink.com 1.10,2013-12-17 05:41:00,
2013-12-16 22:50:00,27.6,11.4,30.26,SSE,149,2.0,11.0,50,0.00,,,0.00,0,Wunderground v.1.15,2013-12-17 05:50:00,
2013-12-16 22:56:00,29.4,11.0,30.26,SSE,150,3.0,7.0,46,0.00,,,0.00,0,weatherlink.com 1.10,2013-12-17 05:56:00,
2013-12-16 23:05:00,31.5,10.5,30.26,SSE,156,2.0,11.0,41,0.00,,,0.00,0,Wunderground v.1.15,2013-12-17 06:05:00,
2013-12-16 23:11:00,30.1,10.0,30.25,SSE,156,0.0,7.0,43,0.00,,,0.00,0,weatherlink.com 1.10,2013-12-17 06:11:00,
2013-12-16 23:20:00,27.2,10.5,30.26,SSW,207,5.0,11.0,49,0.00,,,0.00,0,Wunderground v.1.15,2013-12-17 06:20:00,
2013-12-16 23:27:00,28.2,9.0,30.26,SW,216,10.0,10.0,45,0.00,,,0.00,0,weatherlink.com 1.10,2013-12-17 06:27:00,
2013-12-16 23:35:00,27.5,9.9,30.26,SSW,211,9.0,11.0,47,0.00,,,0.00,0,Wunderground v.1.15,2013-12-17 06:35:00,
2013-12-16 23:40:00,27.2,10.1,30.25,SSW,205,10.0,11.0,48,0.00,,,0.00,0,Wunderground v.1.15,2013-12-17 06:40:00,
2013-12-16 23:45:00,26.9,10.3,30.25,SW,215,9.0,11.0,49,0.00,,,0.00,0,Wunderground v.1.15,2013-12-17 06:45:00,
2013-12-16 23:55:00,27.2,10.1,30.26,SSW,199,6.0,11.0,48,0.00,,,0.00,0,Wunderground v.1.15,2013-12-17 06:55:00,